Terminal Aerodrome Forecast
Issued by NWS

Home | Current Version | Previous Version | Text Only | Print | Product List | Glossary On
Versions: 1 2 3 4 5 6 7 8 9 10 11 12 13 14 15 16 17
000
FTUS43 KILX 150500
TAFBMI
TAF
KBMI 150537Z 1506/1606 18005KT P6SM SCT050 BKN150
     FM151100 19006KT P6SM VCSH BKN050
      TEMPO 1518/1522 4SM -SHRA BR BKN030
     FM152200 34014G20KT P6SM VCSH BKN030
      TEMPO 1522/1524 4SM -SHRA BR BKN025
     FM160200 36012KT P6SM BKN012=

USA.gov is the U.S. government's official web portal to all federal, state and local government web resources and services.